sensor_id;sensor_type;location;lat;lon;timestamp;P1;durP1;ratioP1;P2;durP2;ratioP2
41263;SDS011;26998;48.714;9.414;2023-03-25T00:01:04;2.72;;;1.50;;
41263;SDS011;26998;48.714;9.414;2023-03-25T00:03:39;2.80;;;1.13;;
41263;SDS011;26998;48.714;9.414;2023-03-25T00:06:07;1.55;;;1.15;;
41263;SDS011;26998;48.714;9.414;2023-03-25T00:08:35;2.78;;;1.27;;
41263;SDS011;26998;48.714;9.414;2023-03-25T00:11:02;2.42;;;1.10;;
41263;SDS011;26998;48.714;9.414;2023-03-25T00:13:29;3.47;;;0.93;;
41263;SDS011;26998;48.714;9.414;2023-03-25T00:15:57;2.55;;;0.95;;
41263;SDS011;26998;48.714;9.414;2023-03-25T00:18:25;5.10;;;1.35;;
41263;SDS011;26998;48.714;9.414;2023-03-25T00:20:53;2.15;;;1.33;;
41263;SDS011;26998;48.714;9.414;2023-03-25T00:23:20;3.00;;;0.80;;
41263;SDS011;26998;48.714;9.414;2023-03-25T00:25:47;0.63;;;0.43;;
41263;SDS011;26998;48.714;9.414;2023-03-25T00:28:14;2.17;;;0.82;;
41263;SDS011;26998;48.714;9.414;2023-03-25T00:30:42;2.33;;;0.90;;
41263;SDS011;26998;48.714;9.414;2023-03-25T00:33:09;4.90;;;1.17;;
41263;SDS011;26998;48.714;9.414;2023-03-25T00:35:36;1.25;;;0.80;;
41263;SDS011;26998;48.714;9.414;2023-03-25T00:38:03;3.05;;;0.93;;
41263;SDS011;26998;48.714;9.414;2023-03-25T00:40:31;3.13;;;0.90;;
41263;SDS011;26998;48.714;9.414;2023-03-25T00:42:58;1.45;;;0.82;;
41263;SDS011;26998;48.714;9.414;2023-03-25T00:45:24;2.17;;;0.90;;
41263;SDS011;26998;48.714;9.414;2023-03-25T00:47:51;2.22;;;1.05;;
41263;SDS011;26998;48.714;9.414;2023-03-25T00:50:17;2.65;;;0.77;;
41263;SDS011;26998;48.714;9.414;2023-03-25T00:52:44;1.38;;;0.80;;
41263;SDS011;26998;48.714;9.414;2023-03-25T00:55:10;2.25;;;0.88;;
41263;SDS011;26998;48.714;9.414;2023-03-25T00:57:36;2.05;;;0.90;;
41263;SDS011;26998;48.714;9.414;2023-03-25T01:00:04;1.48;;;0.90;;
41263;SDS011;26998;48.714;9.414;2023-03-25T01:02:33;1.70;;;0.90;;
41263;SDS011;26998;48.714;9.414;2023-03-25T01:05:00;2.05;;;0.85;;
41263;SDS011;26998;48.714;9.414;2023-03-25T01:07:26;1.38;;;1.10;;
41263;SDS011;26998;48.714;9.414;2023-03-25T01:09:53;1.45;;;1.20;;
41263;SDS011;26998;48.714;9.414;2023-03-25T01:12:20;2.03;;;0.88;;
41263;SDS011;26998;48.714;9.414;2023-03-25T01:14:47;4.88;;;1.00;;
41263;SDS011;26998;48.714;9.414;2023-03-25T01:17:13;3.58;;;1.00;;
41263;SDS011;26998;48.714;9.414;2023-03-25T01:19:40;2.95;;;1.20;;
41263;SDS011;26998;48.714;9.414;2023-03-25T01:22:06;1.23;;;1.10;;
41263;SDS011;26998;48.714;9.414;2023-03-25T01:24:33;2.63;;;1.20;;
41263;SDS011;26998;48.714;9.414;2023-03-25T01:26:59;4.93;;;1.48;;
41263;SDS011;26998;48.714;9.414;2023-03-25T01:29:26;4.72;;;1.35;;
41263;SDS011;26998;48.714;9.414;2023-03-25T01:31:53;8.10;;;1.63;;
41263;SDS011;26998;48.714;9.414;2023-03-25T01:34:19;2.53;;;0.98;;
41263;SDS011;26998;48.714;9.414;2023-03-25T01:36:46;1.85;;;0.93;;
41263;SDS011;26998;48.714;9.414;2023-03-25T01:39:13;0.88;;;0.85;;
41263;SDS011;26998;48.714;9.414;2023-03-25T01:41:42;2.03;;;0.88;;
41263;SDS011;26998;48.714;9.414;2023-03-25T01:46:45;1.75;;;1.02;;
41263;SDS011;26998;48.714;9.414;2023-03-25T01:49:15;1.67;;;0.80;;
41263;SDS011;26998;48.714;9.414;2023-03-25T01:51:47;4.30;;;1.08;;
41263;SDS011;26998;48.714;9.414;2023-03-25T01:54:18;1.15;;;0.80;;
41263;SDS011;26998;48.714;9.414;2023-03-25T01:56:45;1.70;;;0.70;;
41263;SDS011;26998;48.714;9.414;2023-03-25T01:59:14;3.75;;;0.95;;
41263;SDS011;26998;48.714;9.414;2023-03-25T02:01:46;0.85;;;0.60;;
41263;SDS011;26998;48.714;9.414;2023-03-25T02:04:13;2.38;;;1.00;;
41263;SDS011;26998;48.714;9.414;2023-03-25T02:06:51;2.50;;;0.98;;
41263;SDS011;26998;48.714;9.414;2023-03-25T02:09:22;2.90;;;0.70;;
41263;SDS011;26998;48.714;9.414;2023-03-25T02:11:50;3.15;;;0.98;;
41263;SDS011;26998;48.714;9.414;2023-03-25T02:14:18;2.58;;;1.10;;
41263;SDS011;26998;48.714;9.414;2023-03-25T02:16:58;2.10;;;0.93;;
41263;SDS011;26998;48.714;9.414;2023-03-25T02:22:24;4.25;;;1.65;;
41263;SDS011;26998;48.714;9.414;2023-03-25T02:37:10;1.60;;;0.80;;
41263;SDS011;26998;48.714;9.414;2023-03-25T02:40:04;2.53;;;1.08;;
41263;SDS011;26998;48.714;9.414;2023-03-25T02:43:09;3.85;;;1.17;;
41263;SDS011;26998;48.714;9.414;2023-03-25T02:45:30;2.85;;;0.88;;
41263;SDS011;26998;48.714;9.414;2023-03-25T02:48:06;3.65;;;0.95;;
41263;SDS011;26998;48.714;9.414;2023-03-25T02:50:41;2.38;;;0.90;;
41263;SDS011;26998;48.714;9.414;2023-03-25T02:53:13;3.22;;;0.90;;
41263;SDS011;26998;48.714;9.414;2023-03-25T02:55:43;1.20;;;0.80;;
41263;SDS011;26998;48.714;9.414;2023-03-25T02:58:12;2.50;;;0.80;;
41263;SDS011;26998;48.714;9.414;2023-03-25T03:00:42;3.10;;;0.70;;
41263;SDS011;26998;48.714;9.414;2023-03-25T03:03:09;0.45;;;0.43;;
41263;SDS011;26998;48.714;9.414;2023-03-25T03:05:40;1.60;;;0.50;;
41263;SDS011;26998;48.714;9.414;2023-03-25T03:08:24;3.05;;;0.85;;
41263;SDS011;26998;48.714;9.414;2023-03-25T03:11:06;1.02;;;0.50;;
41263;SDS011;26998;48.714;9.414;2023-03-25T03:13:44;1.67;;;0.50;;
41263;SDS011;26998;48.714;9.414;2023-03-25T03:16:24;1.23;;;0.80;;
41263;SDS011;26998;48.714;9.414;2023-03-25T03:21:54;1.30;;;0.70;;
41263;SDS011;26998;48.714;9.414;2023-03-25T03:24:23;3.50;;;0.60;;
41263;SDS011;26998;48.714;9.414;2023-03-25T03:27:01;1.45;;;0.70;;
41263;SDS011;26998;48.714;9.414;2023-03-25T03:29:51;1.58;;;0.50;;
41263;SDS011;26998;48.714;9.414;2023-03-25T03:32:29;1.75;;;0.65;;
41263;SDS011;26998;48.714;9.414;2023-03-25T03:35:04;0.73;;;0.50;;
41263;SDS011;26998;48.714;9.414;2023-03-25T03:37:36;1.98;;;0.50;;
41263;SDS011;26998;48.714;9.414;2023-03-25T03:40:08;2.72;;;0.75;;
41263;SDS011;26998;48.714;9.414;2023-03-25T03:42:40;1.25;;;0.50;;
41263;SDS011;26998;48.714;9.414;2023-03-25T03:45:29;0.90;;;0.52;;
41263;SDS011;26998;48.714;9.414;2023-03-25T03:48:06;3.08;;;0.57;;
41263;SDS011;26998;48.714;9.414;2023-03-25T03:50:38;1.15;;;0.40;;
41263;SDS011;26998;48.714;9.414;2023-03-25T03:53:14;0.98;;;0.40;;
41263;SDS011;26998;48.714;9.414;2023-03-25T03:55:48;0.40;;;0.28;;
41263;SDS011;26998;48.714;9.414;2023-03-25T03:58:22;0.85;;;0.40;;
41263;SDS011;26998;48.714;9.414;2023-03-25T04:00:57;0.68;;;0.40;;
41263;SDS011;26998;48.714;9.414;2023-03-25T04:03:35;0.47;;;0.40;;
41263;SDS011;26998;48.714;9.414;2023-03-25T04:06:11;0.50;;;0.45;;
41263;SDS011;26998;48.714;9.414;2023-03-25T04:09:11;0.50;;;0.50;;
41263;SDS011;26998;48.714;9.414;2023-03-25T04:11:46;0.82;;;0.63;;
41263;SDS011;26998;48.714;9.414;2023-03-25T04:14:18;2.00;;;0.38;;
41263;SDS011;26998;48.714;9.414;2023-03-25T04:16:45;1.38;;;0.50;;
41263;SDS011;26998;48.714;9.414;2023-03-25T04:19:12;1.13;;;0.60;;
41263;SDS011;26998;48.714;9.414;2023-03-25T04:21:39;0.50;;;0.40;;
41263;SDS011;26998;48.714;9.414;2023-03-25T04:24:05;0.60;;;0.40;;
41263;SDS011;26998;48.714;9.414;2023-03-25T04:26:32;0.45;;;0.43;;
41263;SDS011;26998;48.714;9.414;2023-03-25T04:28:59;1.42;;;0.38;;
41263;SDS011;26998;48.714;9.414;2023-03-25T04:31:26;1.48;;;0.60;;
41263;SDS011;26998;48.714;9.414;2023-03-25T04:33:55;0.80;;;0.50;;
41263;SDS011;26998;48.714;9.414;2023-03-25T04:36:23;1.63;;;0.50;;
41263;SDS011;26998;48.714;9.414;2023-03-25T04:38:50;0.70;;;0.40;;
41263;SDS011;26998;48.714;9.414;2023-03-25T04:41:17;1.50;;;0.57;;
41263;SDS011;26998;48.714;9.414;2023-03-25T04:43:44;0.80;;;0.80;;
41263;SDS011;26998;48.714;9.414;2023-03-25T04:46:11;0.65;;;0.57;;
41263;SDS011;26998;48.714;9.414;2023-03-25T04:48:39;1.10;;;0.70;;
41263;SDS011;26998;48.714;9.414;2023-03-25T04:51:07;0.50;;;0.47;;
41263;SDS011;26998;48.714;9.414;2023-03-25T04:53:33;1.13;;;0.70;;
41263;SDS011;26998;48.714;9.414;2023-03-25T04:56:00;2.67;;;0.60;;
41263;SDS011;26998;48.714;9.414;2023-03-25T04:58:26;3.53;;;0.82;;
41263;SDS011;26998;48.714;9.414;2023-03-25T05:00:53;1.48;;;0.68;;
41263;SDS011;26998;48.714;9.414;2023-03-25T05:03:20;2.67;;;0.70;;
41263;SDS011;26998;48.714;9.414;2023-03-25T05:05:46;3.45;;;0.90;;
41263;SDS011;26998;48.714;9.414;2023-03-25T05:08:13;1.75;;;0.65;;
41263;SDS011;26998;48.714;9.414;2023-03-25T05:10:39;1.33;;;0.75;;
41263;SDS011;26998;48.714;9.414;2023-03-25T05:13:06;1.73;;;0.73;;
41263;SDS011;26998;48.714;9.414;2023-03-25T05:15:33;2.03;;;0.60;;
41263;SDS011;26998;48.714;9.414;2023-03-25T05:18:01;1.98;;;0.60;;
41263;SDS011;26998;48.714;9.414;2023-03-25T05:20:28;0.65;;;0.50;;
41263;SDS011;26998;48.714;9.414;2023-03-25T05:22:54;1.75;;;0.82;;
41263;SDS011;26998;48.714;9.414;2023-03-25T05:25:21;1.45;;;0.85;;
41263;SDS011;26998;48.714;9.414;2023-03-25T05:27:47;0.90;;;0.77;;
41263;SDS011;26998;48.714;9.414;2023-03-25T05:30:14;4.57;;;0.85;;
41263;SDS011;26998;48.714;9.414;2023-03-25T05:32:41;2.22;;;0.90;;
41263;SDS011;26998;48.714;9.414;2023-03-25T05:35:07;1.88;;;0.70;;
41263;SDS011;26998;48.714;9.414;2023-03-25T05:37:34;2.75;;;0.60;;
41263;SDS011;26998;48.714;9.414;2023-03-25T05:40:01;1.88;;;0.68;;
41263;SDS011;26998;48.714;9.414;2023-03-25T05:42:39;1.35;;;0.60;;
41263;SDS011;26998;48.714;9.414;2023-03-25T05:45:08;1.70;;;0.68;;
41263;SDS011;26998;48.714;9.414;2023-03-25T05:47:35;2.25;;;1.08;;
41263;SDS011;26998;48.714;9.414;2023-03-25T05:50:01;2.63;;;1.10;;
41263;SDS011;26998;48.714;9.414;2023-03-25T05:52:28;1.48;;;0.70;;
41263;SDS011;26998;48.714;9.414;2023-03-25T05:54:54;2.13;;;0.80;;
41263;SDS011;26998;48.714;9.414;2023-03-25T05:57:20;1.30;;;0.75;;
41263;SDS011;26998;48.714;9.414;2023-03-25T05:59:47;2.75;;;0.70;;
41263;SDS011;26998;48.714;9.414;2023-03-25T06:02:14;2.83;;;0.90;;
41263;SDS011;26998;48.714;9.414;2023-03-25T06:04:42;2.88;;;0.90;;
41263;SDS011;26998;48.714;9.414;2023-03-25T06:07:09;3.78;;;0.77;;
41263;SDS011;26998;48.714;9.414;2023-03-25T06:09:36;3.60;;;0.93;;
41263;SDS011;26998;48.714;9.414;2023-03-25T06:12:03;2.47;;;0.65;;
41263;SDS011;26998;48.714;9.414;2023-03-25T06:14:30;3.63;;;0.80;;
41263;SDS011;26998;48.714;9.414;2023-03-25T06:16:56;0.95;;;0.65;;
41263;SDS011;26998;48.714;9.414;2023-03-25T06:19:23;4.70;;;1.05;;
41263;SDS011;26998;48.714;9.414;2023-03-25T06:21:49;2.38;;;1.02;;
41263;SDS011;26998;48.714;9.414;2023-03-25T06:24:16;3.47;;;1.00;;
41263;SDS011;26998;48.714;9.414;2023-03-25T06:26:43;3.65;;;1.27;;
41263;SDS011;26998;48.714;9.414;2023-03-25T06:29:09;4.25;;;1.30;;
41263;SDS011;26998;48.714;9.414;2023-03-25T06:31:36;2.63;;;0.93;;
41263;SDS011;26998;48.714;9.414;2023-03-25T06:34:02;4.88;;;1.08;;
41263;SDS011;26998;48.714;9.414;2023-03-25T06:36:29;5.38;;;1.02;;
41263;SDS011;26998;48.714;9.414;2023-03-25T06:38:55;3.67;;;1.13;;
41263;SDS011;26998;48.714;9.414;2023-03-25T06:41:22;4.30;;;1.17;;
41263;SDS011;26998;48.714;9.414;2023-03-25T06:43:48;3.65;;;1.55;;
41263;SDS011;26998;48.714;9.414;2023-03-25T06:46:15;1.65;;;0.82;;
41263;SDS011;26998;48.714;9.414;2023-03-25T06:48:42;1.95;;;0.90;;
41263;SDS011;26998;48.714;9.414;2023-03-25T06:51:08;2.15;;;0.95;;
41263;SDS011;26998;48.714;9.414;2023-03-25T06:53:35;3.55;;;1.15;;
41263;SDS011;26998;48.714;9.414;2023-03-25T06:56:02;2.90;;;1.05;;
41263;SDS011;26998;48.714;9.414;2023-03-25T06:58:28;5.47;;;1.25;;
41263;SDS011;26998;48.714;9.414;2023-03-25T07:00:55;2.67;;;1.30;;
41263;SDS011;26998;48.714;9.414;2023-03-25T07:03:21;5.32;;;1.58;;
41263;SDS011;26998;48.714;9.414;2023-03-25T07:05:48;3.40;;;0.90;;
41263;SDS011;26998;48.714;9.414;2023-03-25T07:08:15;5.13;;;1.17;;
41263;SDS011;26998;48.714;9.414;2023-03-25T07:10:41;1.88;;;0.95;;
41263;SDS011;26998;48.714;9.414;2023-03-25T07:13:08;3.80;;;1.30;;
41263;SDS011;26998;48.714;9.414;2023-03-25T07:15:35;2.35;;;1.00;;
41263;SDS011;26998;48.714;9.414;2023-03-25T07:18:02;2.85;;;1.25;;
41263;SDS011;26998;48.714;9.414;2023-03-25T07:20:29;3.72;;;0.98;;
41263;SDS011;26998;48.714;9.414;2023-03-25T07:22:56;1.35;;;0.68;;
41263;SDS011;26998;48.714;9.414;2023-03-25T07:25:22;5.15;;;0.93;;
41263;SDS011;26998;48.714;9.414;2023-03-25T07:27:49;5.68;;;1.20;;
41263;SDS011;26998;48.714;9.414;2023-03-25T07:30:15;3.03;;;0.85;;
41263;SDS011;26998;48.714;9.414;2023-03-25T07:32:43;3.13;;;0.90;;
41263;SDS011;26998;48.714;9.414;2023-03-25T07:35:10;2.90;;;0.85;;
41263;SDS011;26998;48.714;9.414;2023-03-25T07:37:37;3.33;;;1.10;;
41263;SDS011;26998;48.714;9.414;2023-03-25T07:40:03;3.15;;;0.88;;
41263;SDS011;26998;48.714;9.414;2023-03-25T07:42:30;2.72;;;0.90;;
41263;SDS011;26998;48.714;9.414;2023-03-25T07:44:57;2.30;;;1.15;;
41263;SDS011;26998;48.714;9.414;2023-03-25T07:47:23;3.65;;;0.90;;
41263;SDS011;26998;48.714;9.414;2023-03-25T07:49:50;1.45;;;0.90;;
41263;SDS011;26998;48.714;9.414;2023-03-25T07:52:17;3.78;;;0.95;;
41263;SDS011;26998;48.714;9.414;2023-03-25T07:54:43;1.02;;;0.63;;
41263;SDS011;26998;48.714;9.414;2023-03-25T07:57:10;4.80;;;1.42;;
41263;SDS011;26998;48.714;9.414;2023-03-25T07:59:36;3.35;;;1.25;;
41263;SDS011;26998;48.714;9.414;2023-03-25T08:02:03;1.83;;;0.70;;
41263;SDS011;26998;48.714;9.414;2023-03-25T08:04:30;2.83;;;0.80;;
41263;SDS011;26998;48.714;9.414;2023-03-25T08:06:56;2.65;;;0.80;;
41263;SDS011;26998;48.714;9.414;2023-03-25T08:09:23;3.25;;;0.75;;
41263;SDS011;26998;48.714;9.414;2023-03-25T08:11:49;2.65;;;0.70;;
41263;SDS011;26998;48.714;9.414;2023-03-25T08:14:16;2.28;;;0.80;;
41263;SDS011;26998;48.714;9.414;2023-03-25T08:16:43;4.72;;;1.20;;
41263;SDS011;26998;48.714;9.414;2023-03-25T08:19:09;4.70;;;1.08;;
41263;SDS011;26998;48.714;9.414;2023-03-25T08:21:36;3.67;;;0.98;;
41263;SDS011;26998;48.714;9.414;2023-03-25T08:24:02;5.07;;;0.80;;
41263;SDS011;26998;48.714;9.414;2023-03-25T08:26:29;4.00;;;1.08;;
41263;SDS011;26998;48.714;9.414;2023-03-25T08:28:57;1.20;;;0.52;;
41263;SDS011;26998;48.714;9.414;2023-03-25T08:31:24;1.52;;;0.50;;
41263;SDS011;26998;48.714;9.414;2023-03-25T08:33:51;2.45;;;0.82;;
41263;SDS011;26998;48.714;9.414;2023-03-25T08:36:17;0.77;;;0.60;;
41263;SDS011;26998;48.714;9.414;2023-03-25T08:38:45;0.50;;;0.50;;
41263;SDS011;26998;48.714;9.414;2023-03-25T08:41:12;2.70;;;0.80;;
41263;SDS011;26998;48.714;9.414;2023-03-25T08:43:38;1.42;;;0.55;;
41263;SDS011;26998;48.714;9.414;2023-03-25T08:46:05;1.20;;;0.43;;
41263;SDS011;26998;48.714;9.414;2023-03-25T08:48:32;0.70;;;0.57;;
41263;SDS011;26998;48.714;9.414;2023-03-25T08:50:58;3.10;;;0.90;;
41263;SDS011;26998;48.714;9.414;2023-03-25T08:53:25;1.33;;;0.88;;
41263;SDS011;26998;48.714;9.414;2023-03-25T08:55:52;3.75;;;1.23;;
41263;SDS011;26998;48.714;9.414;2023-03-25T08:58:19;2.58;;;0.60;;
41263;SDS011;26998;48.714;9.414;2023-03-25T09:00:47;2.65;;;0.68;;
41263;SDS011;26998;48.714;9.414;2023-03-25T09:03:14;4.32;;;2.10;;
41263;SDS011;26998;48.714;9.414;2023-03-25T09:05:41;3.25;;;1.38;;
41263;SDS011;26998;48.714;9.414;2023-03-25T09:08:07;1.45;;;1.23;;
41263;SDS011;26998;48.714;9.414;2023-03-25T09:10:34;3.08;;;1.08;;
41263;SDS011;26998;48.714;9.414;2023-03-25T09:13:03;1.63;;;0.80;;
41263;SDS011;26998;48.714;9.414;2023-03-25T09:15:29;1.38;;;0.80;;
41263;SDS011;26998;48.714;9.414;2023-03-25T09:17:56;7.32;;;1.33;;
41263;SDS011;26998;48.714;9.414;2023-03-25T09:20:23;2.10;;;1.30;;
41263;SDS011;26998;48.714;9.414;2023-03-25T09:22:50;3.10;;;1.20;;
41263;SDS011;26998;48.714;9.414;2023-03-25T09:25:16;3.45;;;1.67;;
41263;SDS011;26998;48.714;9.414;2023-03-25T09:27:43;5.53;;;3.10;;
41263;SDS011;26998;48.714;9.414;2023-03-25T09:30:10;5.88;;;3.45;;
41263;SDS011;26998;48.714;9.414;2023-03-25T09:32:36;2.78;;;1.10;;
41263;SDS011;26998;48.714;9.414;2023-03-25T09:35:03;4.32;;;0.73;;
41263;SDS011;26998;48.714;9.414;2023-03-25T09:37:31;2.28;;;0.88;;
41263;SDS011;26998;48.714;9.414;2023-03-25T09:39:57;1.25;;;0.70;;
41263;SDS011;26998;48.714;9.414;2023-03-25T09:42:29;2.00;;;0.63;;
41263;SDS011;26998;48.714;9.414;2023-03-25T09:45:18;0.88;;;0.60;;
41263;SDS011;26998;48.714;9.414;2023-03-25T09:47:55;2.00;;;0.60;;
41263;SDS011;26998;48.714;9.414;2023-03-25T09:50:27;1.90;;;0.90;;
41263;SDS011;26998;48.714;9.414;2023-03-25T09:52:56;0.75;;;0.73;;
41263;SDS011;26998;48.714;9.414;2023-03-25T09:55:31;1.85;;;1.00;;
41263;SDS011;26998;48.714;9.414;2023-03-25T09:58:02;2.67;;;1.30;;
41263;SDS011;26998;48.714;9.414;2023-03-25T10:00:58;1.35;;;1.08;;
41263;SDS011;26998;48.714;9.414;2023-03-25T10:03:31;1.77;;;0.80;;
41263;SDS011;26998;48.714;9.414;2023-03-25T10:06:08;2.67;;;1.00;;
41263;SDS011;26998;48.714;9.414;2023-03-25T10:09:07;1.55;;;0.90;;
41263;SDS011;26998;48.714;9.414;2023-03-25T10:11:47;4.63;;;1.90;;
41263;SDS011;26998;48.714;9.414;2023-03-25T10:14:25;4.28;;;2.20;;
41263;SDS011;26998;48.714;9.414;2023-03-25T10:16:57;2.47;;;2.28;;
41263;SDS011;26998;48.714;9.414;2023-03-25T10:19:57;2.45;;;1.58;;
41263;SDS011;26998;48.714;9.414;2023-03-25T10:22:37;1.75;;;1.08;;
41263;SDS011;26998;48.714;9.414;2023-03-25T10:25:26;2.33;;;0.80;;
41263;SDS011;26998;48.714;9.414;2023-03-25T10:27:56;3.47;;;1.40;;
41263;SDS011;26998;48.714;9.414;2023-03-25T10:30:26;2.35;;;0.80;;
41263;SDS011;26998;48.714;9.414;2023-03-25T10:33:14;2.92;;;0.70;;
41263;SDS011;26998;48.714;9.414;2023-03-25T10:35:50;2.83;;;0.52;;
41263;SDS011;26998;48.714;9.414;2023-03-25T10:38:21;1.45;;;0.30;;
41263;SDS011;26998;48.714;9.414;2023-03-25T10:41:01;0.68;;;0.30;;
41263;SDS011;26998;48.714;9.414;2023-03-25T10:43:31;1.10;;;0.47;;
41263;SDS011;26998;48.714;9.414;2023-03-25T10:48:34;2.20;;;0.80;;
41263;SDS011;26998;48.714;9.414;2023-03-25T10:51:08;0.75;;;0.50;;
41263;SDS011;26998;48.714;9.414;2023-03-25T10:53:37;0.85;;;0.40;;
41263;SDS011;26998;48.714;9.414;2023-03-25T10:56:08;2.10;;;0.50;;
41263;SDS011;26998;48.714;9.414;2023-03-25T10:58:39;1.48;;;0.50;;
41263;SDS011;26998;48.714;9.414;2023-03-25T11:01:11;4.78;;;0.82;;
41263;SDS011;26998;48.714;9.414;2023-03-25T11:03:40;3.95;;;0.68;;
41263;SDS011;26998;48.714;9.414;2023-03-25T11:06:18;1.35;;;0.50;;
41263;SDS011;26998;48.714;9.414;2023-03-25T11:09:09;0.70;;;0.50;;
41263;SDS011;26998;48.714;9.414;2023-03-25T11:11:38;2.43;;;0.53;;
41263;SDS011;26998;48.714;9.414;2023-03-25T11:14:06;0.82;;;0.63;;
41263;SDS011;26998;48.714;9.414;2023-03-25T11:16:34;2.95;;;0.90;;
41263;SDS011;26998;48.714;9.414;2023-03-25T11:19:12;1.60;;;0.43;;
41263;SDS011;26998;48.714;9.414;2023-03-25T11:21:45;1.70;;;0.47;;
41263;SDS011;26998;48.714;9.414;2023-03-25T11:24:16;0.47;;;0.40;;
41263;SDS011;26998;48.714;9.414;2023-03-25T11:26:44;0.73;;;0.50;;
41263;SDS011;26998;48.714;9.414;2023-03-25T11:29:15;2.35;;;0.60;;
41263;SDS011;26998;48.714;9.414;2023-03-25T11:34:21;3.17;;;0.93;;
41263;SDS011;26998;48.714;9.414;2023-03-25T11:36:54;1.50;;;0.60;;
41263;SDS011;26998;48.714;9.414;2023-03-25T11:39:32;1.30;;;1.05;;
41263;SDS011;26998;48.714;9.414;2023-03-25T11:42:12;2.33;;;1.02;;
41263;SDS011;26998;48.714;9.414;2023-03-25T11:44:51;2.28;;;0.60;;
41263;SDS011;26998;48.714;9.414;2023-03-25T11:47:21;2.03;;;0.77;;
41263;SDS011;26998;48.714;9.414;2023-03-25T11:49:52;3.38;;;0.63;;
41263;SDS011;26998;48.714;9.414;2023-03-25T11:52:20;2.25;;;0.63;;
41263;SDS011;26998;48.714;9.414;2023-03-25T11:55:01;2.25;;;0.52;;
41263;SDS011;26998;48.714;9.414;2023-03-25T11:57:30;0.75;;;0.40;;
41263;SDS011;26998;48.714;9.414;2023-03-25T12:00:27;3.70;;;0.60;;
41263;SDS011;26998;48.714;9.414;2023-03-25T12:03:00;1.02;;;0.70;;
41263;SDS011;26998;48.714;9.414;2023-03-25T12:05:39;2.78;;;0.82;;
41263;SDS011;26998;48.714;9.414;2023-03-25T12:16:34;2.60;;;0.75;;
41263;SDS011;26998;48.714;9.414;2023-03-25T12:38:47;2.67;;;0.52;;
41263;SDS011;26998;48.714;9.414;2023-03-25T12:41:30;1.42;;;0.70;;
41263;SDS011;26998;48.714;9.414;2023-03-25T12:47:05;1.45;;;0.95;;
41263;SDS011;26998;48.714;9.414;2023-03-25T12:50:02;2.55;;;0.82;;
41263;SDS011;26998;48.714;9.414;2023-03-25T12:55:18;1.50;;;0.85;;
41263;SDS011;26998;48.714;9.414;2023-03-25T13:00:27;3.42;;;0.70;;
41263;SDS011;26998;48.714;9.414;2023-03-25T13:03:27;2.03;;;0.65;;
41263;SDS011;26998;48.714;9.414;2023-03-25T13:09:08;1.05;;;0.50;;
41263;SDS011;26998;48.714;9.414;2023-03-25T13:11:53;2.55;;;0.68;;
41263;SDS011;26998;48.714;9.414;2023-03-25T13:14:26;0.93;;;0.47;;
41263;SDS011;26998;48.714;9.414;2023-03-25T13:17:26;1.38;;;0.80;;
41263;SDS011;26998;48.714;9.414;2023-03-25T13:22:28;1.00;;;0.60;;
41263;SDS011;26998;48.714;9.414;2023-03-25T13:25:00;1.35;;;0.80;;
41263;SDS011;26998;48.714;9.414;2023-03-25T13:27:32;1.20;;;0.80;;
41263;SDS011;26998;48.714;9.414;2023-03-25T13:30:01;2.17;;;0.63;;
41263;SDS011;26998;48.714;9.414;2023-03-25T13:32:48;1.13;;;0.55;;
41263;SDS011;26998;48.714;9.414;2023-03-25T13:37:53;0.47;;;0.47;;
41263;SDS011;26998;48.714;9.414;2023-03-25T13:40:25;1.15;;;0.43;;
41263;SDS011;26998;48.714;9.414;2023-03-25T13:43:05;1.23;;;0.98;;
41263;SDS011;26998;48.714;9.414;2023-03-25T13:45:54;5.25;;;1.00;;
41263;SDS011;26998;48.714;9.414;2023-03-25T13:48:52;2.08;;;0.70;;
41263;SDS011;26998;48.714;9.414;2023-03-25T13:51:22;1.20;;;0.55;;
41263;SDS011;26998;48.714;9.414;2023-03-25T14:05:10;1.42;;;0.77;;
41263;SDS011;26998;48.714;9.414;2023-03-25T14:07:50;1.50;;;0.68;;
41263;SDS011;26998;48.714;9.414;2023-03-25T14:10:45;3.60;;;1.60;;
41263;SDS011;26998;48.714;9.414;2023-03-25T14:13:35;3.10;;;0.85;;
41263;SDS011;26998;48.714;9.414;2023-03-25T14:16:05;2.78;;;0.85;;
41263;SDS011;26998;48.714;9.414;2023-03-25T14:19:09;1.95;;;0.70;;
41263;SDS011;26998;48.714;9.414;2023-03-25T14:24:03;2.88;;;0.75;;
41263;SDS011;26998;48.714;9.414;2023-03-25T14:26:35;1.52;;;0.73;;
41263;SDS011;26998;48.714;9.414;2023-03-25T14:29:16;2.22;;;0.75;;
41263;SDS011;26998;48.714;9.414;2023-03-25T14:32:02;3.88;;;1.20;;
41263;SDS011;26998;48.714;9.414;2023-03-25T14:34:31;3.55;;;0.80;;
41263;SDS011;26998;48.714;9.414;2023-03-25T14:42:01;1.83;;;0.93;;
41263;SDS011;26998;48.714;9.414;2023-03-25T14:44:41;1.25;;;0.80;;
41263;SDS011;26998;48.714;9.414;2023-03-25T14:52:56;2.50;;;0.65;;
41263;SDS011;26998;48.714;9.414;2023-03-25T14:55:27;3.58;;;0.80;;
41263;SDS011;26998;48.714;9.414;2023-03-25T14:57:57;2.63;;;0.70;;
41263;SDS011;26998;48.714;9.414;2023-03-25T15:00:31;2.13;;;0.60;;
41263;SDS011;26998;48.714;9.414;2023-03-25T15:03:09;2.17;;;1.00;;
41263;SDS011;26998;48.714;9.414;2023-03-25T15:05:38;2.13;;;0.63;;
41263;SDS011;26998;48.714;9.414;2023-03-25T15:08:20;3.47;;;0.80;;
41263;SDS011;26998;48.714;9.414;2023-03-25T15:13:54;4.45;;;1.17;;
41263;SDS011;26998;48.714;9.414;2023-03-25T15:16:30;1.95;;;1.00;;
41263;SDS011;26998;48.714;9.414;2023-03-25T15:18:58;5.15;;;0.70;;
41263;SDS011;26998;48.714;9.414;2023-03-25T15:21:29;1.42;;;0.80;;
41263;SDS011;26998;48.714;9.414;2023-03-25T15:26:40;1.35;;;0.75;;
41263;SDS011;26998;48.714;9.414;2023-03-25T15:29:12;1.50;;;1.00;;
41263;SDS011;26998;48.714;9.414;2023-03-25T15:37:53;2.17;;;0.82;;
41263;SDS011;26998;48.714;9.414;2023-03-25T15:40:28;1.20;;;0.52;;
41263;SDS011;26998;48.714;9.414;2023-03-25T15:46:40;3.60;;;0.73;;
41263;SDS011;26998;48.714;9.414;2023-03-25T15:56:08;0.98;;;0.50;;
41263;SDS011;26998;48.714;9.414;2023-03-25T16:06:57;1.67;;;0.70;;
41263;SDS011;26998;48.714;9.414;2023-03-25T16:09:26;2.00;;;0.85;;
41263;SDS011;26998;48.714;9.414;2023-03-25T16:11:57;1.42;;;0.80;;
41263;SDS011;26998;48.714;9.414;2023-03-25T16:14:30;2.10;;;0.80;;
41263;SDS011;26998;48.714;9.414;2023-03-25T16:16:59;5.47;;;1.02;;
41263;SDS011;26998;48.714;9.414;2023-03-25T16:19:41;2.25;;;0.70;;
41263;SDS011;26998;48.714;9.414;2023-03-25T16:22:24;1.63;;;0.90;;
41263;SDS011;26998;48.714;9.414;2023-03-25T16:24:57;3.65;;;0.82;;
41263;SDS011;26998;48.714;9.414;2023-03-25T16:27:32;2.97;;;1.02;;
41263;SDS011;26998;48.714;9.414;2023-03-25T16:30:01;4.13;;;1.20;;
41263;SDS011;26998;48.714;9.414;2023-03-25T16:32:43;1.58;;;0.82;;
41263;SDS011;26998;48.714;9.414;2023-03-25T16:35:18;2.00;;;0.82;;
41263;SDS011;26998;48.714;9.414;2023-03-25T16:37:46;4.30;;;1.25;;
41263;SDS011;26998;48.714;9.414;2023-03-25T16:40:13;1.65;;;0.68;;
41263;SDS011;26998;48.714;9.414;2023-03-25T16:42:49;4.18;;;0.88;;
41263;SDS011;26998;48.714;9.414;2023-03-25T16:45:18;2.75;;;1.20;;
41263;SDS011;26998;48.714;9.414;2023-03-25T16:47:45;2.75;;;0.90;;
41263;SDS011;26998;48.714;9.414;2023-03-25T16:50:13;4.38;;;1.13;;
41263;SDS011;26998;48.714;9.414;2023-03-25T16:52:42;1.95;;;1.00;;
41263;SDS011;26998;48.714;9.414;2023-03-25T16:57:51;3.80;;;1.35;;
41263;SDS011;26998;48.714;9.414;2023-03-25T17:00:22;3.00;;;1.38;;
41263;SDS011;26998;48.714;9.414;2023-03-25T17:02:49;1.65;;;1.10;;
41263;SDS011;26998;48.714;9.414;2023-03-25T17:05:18;1.40;;;0.80;;
41263;SDS011;26998;48.714;9.414;2023-03-25T17:10:27;3.65;;;1.02;;
41263;SDS011;26998;48.714;9.414;2023-03-25T17:12:56;1.38;;;1.10;;
41263;SDS011;26998;48.714;9.414;2023-03-25T17:15:29;4.05;;;1.35;;
41263;SDS011;26998;48.714;9.414;2023-03-25T17:17:57;4.25;;;0.98;;
41263;SDS011;26998;48.714;9.414;2023-03-25T17:20:35;2.83;;;1.02;;
41263;SDS011;26998;48.714;9.414;2023-03-25T17:23:06;2.40;;;1.00;;